sensor_id;sensor_type;location;lat;lon;timestamp;temperature;humidity
18225;DHT22;9237;48.590;8.854;2022-10-31T00:00:06;9.00;99.90
18225;DHT22;9237;48.590;8.854;2022-10-31T00:02:35;8.80;99.90
18225;DHT22;9237;48.590;8.854;2022-10-31T00:05:02;8.80;99.90
18225;DHT22;9237;48.590;8.854;2022-10-31T00:07:28;8.60;99.90
18225;DHT22;9237;48.590;8.854;2022-10-31T00:09:55;8.60;99.90
18225;DHT22;9237;48.590;8.854;2022-10-31T00:12:22;8.50;99.90
18225;DHT22;9237;48.590;8.854;2022-10-31T00:14:49;8.50;99.90
18225;DHT22;9237;48.590;8.854;2022-10-31T00:17:15;8.50;99.90
18225;DHT22;9237;48.590;8.854;2022-10-31T00:19:44;8.50;99.90
18225;DHT22;9237;48.590;8.854;2022-10-31T00:22:10;8.50;99.90
18225;DHT22;9237;48.590;8.854;2022-10-31T00:24:37;8.60;99.90
18225;DHT22;9237;48.590;8.854;2022-10-31T00:27:04;8.60;99.90
18225;DHT22;9237;48.590;8.854;2022-10-31T00:29:31;8.60;99.90
18225;DHT22;9237;48.590;8.854;2022-10-31T00:31:58;8.80;99.90
18225;DHT22;9237;48.590;8.854;2022-10-31T00:34:24;8.80;99.90
18225;DHT22;9237;48.590;8.854;2022-10-31T00:36:53;8.80;99.90
18225;DHT22;9237;48.590;8.854;2022-10-31T00:39:19;8.60;99.90
18225;DHT22;9237;48.590;8.854;2022-10-31T00:41:46;8.50;99.90
18225;DHT22;9237;48.590;8.854;2022-10-31T00:44:13;8.40;99.90
18225;DHT22;9237;48.590;8.854;2022-10-31T00:46:40;8.30;99.90
18225;DHT22;9237;48.590;8.854;2022-10-31T00:49:06;8.30;99.90
18225;DHT22;9237;48.590;8.854;2022-10-31T00:51:33;8.30;99.90
18225;DHT22;9237;48.590;8.854;2022-10-31T00:54:02;8.30;99.90
18225;DHT22;9237;48.590;8.854;2022-10-31T00:56:29;8.30;99.90
18225;DHT22;9237;48.590;8.854;2022-10-31T00:58:56;8.20;99.90
18225;DHT22;9237;48.590;8.854;2022-10-31T01:01:22;8.30;99.90
18225;DHT22;9237;48.590;8.854;2022-10-31T01:03:49;8.30;99.90
18225;DHT22;9237;48.590;8.854;2022-10-31T01:06:16;8.20;99.90
18225;DHT22;9237;48.590;8.854;2022-10-31T01:08:43;8.30;99.90
18225;DHT22;9237;48.590;8.854;2022-10-31T01:11:14;8.40;99.90
18225;DHT22;9237;48.590;8.854;2022-10-31T01:13:43;8.30;99.90
18225;DHT22;9237;48.590;8.854;2022-10-31T01:16:13;8.30;99.90
18225;DHT22;9237;48.590;8.854;2022-10-31T01:18:40;8.60;99.90
18225;DHT22;9237;48.590;8.854;2022-10-31T01:21:09;8.50;99.90
18225;DHT22;9237;48.590;8.854;2022-10-31T01:23:36;8.40;99.90
18225;DHT22;9237;48.590;8.854;2022-10-31T01:26:06;8.30;99.90
18225;DHT22;9237;48.590;8.854;2022-10-31T01:28:35;8.30;99.90
18225;DHT22;9237;48.590;8.854;2022-10-31T01:31:03;8.40;99.90
18225;DHT22;9237;48.590;8.854;2022-10-31T01:33:30;8.30;99.90
18225;DHT22;9237;48.590;8.854;2022-10-31T01:35:57;8.20;99.90
18225;DHT22;9237;48.590;8.854;2022-10-31T01:38:24;8.20;99.90
18225;DHT22;9237;48.590;8.854;2022-10-31T01:40:51;8.10;99.90
18225;DHT22;9237;48.590;8.854;2022-10-31T01:43:18;8.00;99.90
18225;DHT22;9237;48.590;8.854;2022-10-31T01:45:51;8.10;99.90
18225;DHT22;9237;48.590;8.854;2022-10-31T01:48:22;8.00;99.90
18225;DHT22;9237;48.590;8.854;2022-10-31T01:50:51;7.90;99.90
18225;DHT22;9237;48.590;8.854;2022-10-31T01:53:20;7.90;99.90
18225;DHT22;9237;48.590;8.854;2022-10-31T01:55:47;7.90;99.90
18225;DHT22;9237;48.590;8.854;2022-10-31T01:58:16;7.90;99.90
18225;DHT22;9237;48.590;8.854;2022-10-31T02:00:48;7.90;99.90
18225;DHT22;9237;48.590;8.854;2022-10-31T02:03:17;7.90;99.90
18225;DHT22;9237;48.590;8.854;2022-10-31T02:05:45;8.00;99.90
18225;DHT22;9237;48.590;8.854;2022-10-31T02:08:16;7.90;99.90
18225;DHT22;9237;48.590;8.854;2022-10-31T02:10:43;7.80;99.90
18225;DHT22;9237;48.590;8.854;2022-10-31T02:13:11;7.80;99.90
18225;DHT22;9237;48.590;8.854;2022-10-31T02:15:40;7.80;99.90
18225;DHT22;9237;48.590;8.854;2022-10-31T02:18:09;7.80;99.90
18225;DHT22;9237;48.590;8.854;2022-10-31T02:20:42;7.70;99.90
18225;DHT22;9237;48.590;8.854;2022-10-31T02:23:33;7.70;99.90
18225;DHT22;9237;48.590;8.854;2022-10-31T02:26:27;7.60;99.90
18225;DHT22;9237;48.590;8.854;2022-10-31T02:29:18;7.70;99.90
18225;DHT22;9237;48.590;8.854;2022-10-31T02:31:58;7.70;99.90
18225;DHT22;9237;48.590;8.854;2022-10-31T02:34:34;7.60;99.90
18225;DHT22;9237;48.590;8.854;2022-10-31T02:37:07;7.60;99.90
18225;DHT22;9237;48.590;8.854;2022-10-31T02:39:39;7.60;99.90
18225;DHT22;9237;48.590;8.854;2022-10-31T02:42:15;7.60;99.90
18225;DHT22;9237;48.590;8.854;2022-10-31T02:44:49;7.60;99.90
18225;DHT22;9237;48.590;8.854;2022-10-31T02:47:22;7.50;99.90
18225;DHT22;9237;48.590;8.854;2022-10-31T02:49:54;7.50;99.90
18225;DHT22;9237;48.590;8.854;2022-10-31T02:52:25;7.60;99.90
18225;DHT22;9237;48.590;8.854;2022-10-31T02:54:52;7.50;99.90
18225;DHT22;9237;48.590;8.854;2022-10-31T02:57:22;7.50;99.90
18225;DHT22;9237;48.590;8.854;2022-10-31T02:59:53;7.40;99.90
18225;DHT22;9237;48.590;8.854;2022-10-31T03:02:43;7.40;99.90
18225;DHT22;9237;48.590;8.854;2022-10-31T03:05:32;7.50;99.90
18225;DHT22;9237;48.590;8.854;2022-10-31T03:08:06;7.50;99.90
18225;DHT22;9237;48.590;8.854;2022-10-31T03:10:40;7.40;99.90
18225;DHT22;9237;48.590;8.854;2022-10-31T03:13:12;7.40;99.90
18225;DHT22;9237;48.590;8.854;2022-10-31T03:15:43;7.40;99.90
18225;DHT22;9237;48.590;8.854;2022-10-31T03:18:15;7.50;99.90
18225;DHT22;9237;48.590;8.854;2022-10-31T03:20:47;7.60;99.90
18225;DHT22;9237;48.590;8.854;2022-10-31T03:23:18;7.70;99.90
18225;DHT22;9237;48.590;8.854;2022-10-31T03:25:46;7.70;99.90
18225;DHT22;9237;48.590;8.854;2022-10-31T03:28:17;7.80;99.90
18225;DHT22;9237;48.590;8.854;2022-10-31T03:30:45;7.80;99.90
18225;DHT22;9237;48.590;8.854;2022-10-31T03:33:17;7.70;99.90
18225;DHT22;9237;48.590;8.854;2022-10-31T03:35:50;7.90;99.90
18225;DHT22;9237;48.590;8.854;2022-10-31T03:38:18;7.90;99.90
18225;DHT22;9237;48.590;8.854;2022-10-31T03:40:47;7.70;99.90
18225;DHT22;9237;48.590;8.854;2022-10-31T03:43:18;7.50;99.90
18225;DHT22;9237;48.590;8.854;2022-10-31T03:45:47;7.40;99.90
18225;DHT22;9237;48.590;8.854;2022-10-31T03:48:17;7.40;99.90
18225;DHT22;9237;48.590;8.854;2022-10-31T03:50:52;7.40;99.90
18225;DHT22;9237;48.590;8.854;2022-10-31T03:53:25;7.40;99.90
18225;DHT22;9237;48.590;8.854;2022-10-31T03:55:59;7.30;99.90
18225;DHT22;9237;48.590;8.854;2022-10-31T03:58:30;7.40;99.90
18225;DHT22;9237;48.590;8.854;2022-10-31T04:01:01;7.30;99.90
18225;DHT22;9237;48.590;8.854;2022-10-31T04:03:32;7.20;99.90
18225;DHT22;9237;48.590;8.854;2022-10-31T04:06:04;7.20;99.90
18225;DHT22;9237;48.590;8.854;2022-10-31T04:08:35;7.20;99.90
18225;DHT22;9237;48.590;8.854;2022-10-31T04:11:05;7.10;99.90
18225;DHT22;9237;48.590;8.854;2022-10-31T04:13:34;7.20;99.90
18225;DHT22;9237;48.590;8.854;2022-10-31T04:16:02;7.10;99.90
18225;DHT22;9237;48.590;8.854;2022-10-31T04:18:30;7.00;99.90
18225;DHT22;9237;48.590;8.854;2022-10-31T04:21:01;7.10;99.90
18225;DHT22;9237;48.590;8.854;2022-10-31T04:23:29;7.10;99.90
18225;DHT22;9237;48.590;8.854;2022-10-31T04:25:56;7.00;99.90
18225;DHT22;9237;48.590;8.854;2022-10-31T04:28:23;7.00;99.90
18225;DHT22;9237;48.590;8.854;2022-10-31T04:30:49;7.00;99.90
18225;DHT22;9237;48.590;8.854;2022-10-31T04:33:17;6.90;99.90
18225;DHT22;9237;48.590;8.854;2022-10-31T04:35:45;6.90;99.90
18225;DHT22;9237;48.590;8.854;2022-10-31T04:38:12;7.00;99.90
18225;DHT22;9237;48.590;8.854;2022-10-31T04:40:39;6.90;99.90
18225;DHT22;9237;48.590;8.854;2022-10-31T04:43:06;6.80;99.90
18225;DHT22;9237;48.590;8.854;2022-10-31T04:45:33;6.90;99.90
18225;DHT22;9237;48.590;8.854;2022-10-31T04:48:00;7.10;99.90
18225;DHT22;9237;48.590;8.854;2022-10-31T04:50:26;7.20;99.90
18225;DHT22;9237;48.590;8.854;2022-10-31T04:52:55;7.20;99.90
18225;DHT22;9237;48.590;8.854;2022-10-31T04:55:21;7.00;99.90
18225;DHT22;9237;48.590;8.854;2022-10-31T04:57:49;7.00;99.90
18225;DHT22;9237;48.590;8.854;2022-10-31T05:00:18;6.90;99.90
18225;DHT22;9237;48.590;8.854;2022-10-31T05:02:46;6.80;99.90
18225;DHT22;9237;48.590;8.854;2022-10-31T05:05:13;6.80;99.90
18225;DHT22;9237;48.590;8.854;2022-10-31T05:07:42;6.70;99.90
18225;DHT22;9237;48.590;8.854;2022-10-31T05:10:12;6.60;99.90
18225;DHT22;9237;48.590;8.854;2022-10-31T05:12:45;6.50;99.90
18225;DHT22;9237;48.590;8.854;2022-10-31T05:15:13;6.60;99.90
18225;DHT22;9237;48.590;8.854;2022-10-31T05:17:39;6.60;99.90
18225;DHT22;9237;48.590;8.854;2022-10-31T05:20:07;6.60;99.90
18225;DHT22;9237;48.590;8.854;2022-10-31T05:22:34;6.60;99.90
18225;DHT22;9237;48.590;8.854;2022-10-31T05:25:00;6.60;99.90
18225;DHT22;9237;48.590;8.854;2022-10-31T05:27:29;6.60;99.90
18225;DHT22;9237;48.590;8.854;2022-10-31T05:29:55;6.50;99.90
18225;DHT22;9237;48.590;8.854;2022-10-31T05:32:22;6.50;99.90
18225;DHT22;9237;48.590;8.854;2022-10-31T05:34:49;6.40;99.90
18225;DHT22;9237;48.590;8.854;2022-10-31T05:37:16;6.40;99.90
18225;DHT22;9237;48.590;8.854;2022-10-31T05:39:43;6.30;99.90
18225;DHT22;9237;48.590;8.854;2022-10-31T05:42:09;6.30;99.90
18225;DHT22;9237;48.590;8.854;2022-10-31T05:44:37;6.30;99.90
18225;DHT22;9237;48.590;8.854;2022-10-31T05:47:05;6.30;99.90
18225;DHT22;9237;48.590;8.854;2022-10-31T05:49:32;6.20;99.90
18225;DHT22;9237;48.590;8.854;2022-10-31T05:51:58;6.20;99.90
18225;DHT22;9237;48.590;8.854;2022-10-31T05:54:25;6.30;99.90
18225;DHT22;9237;48.590;8.854;2022-10-31T05:56:52;6.40;99.90
18225;DHT22;9237;48.590;8.854;2022-10-31T05:59:19;6.40;99.90
18225;DHT22;9237;48.590;8.854;2022-10-31T06:01:47;6.40;99.90
18225;DHT22;9237;48.590;8.854;2022-10-31T06:04:15;6.40;99.90
18225;DHT22;9237;48.590;8.854;2022-10-31T06:06:41;6.50;99.90
18225;DHT22;9237;48.590;8.854;2022-10-31T06:09:08;6.70;99.90
18225;DHT22;9237;48.590;8.854;2022-10-31T06:11:35;6.50;99.90
18225;DHT22;9237;48.590;8.854;2022-10-31T06:14:02;6.50;99.90
18225;DHT22;9237;48.590;8.854;2022-10-31T06:16:29;6.40;99.90
18225;DHT22;9237;48.590;8.854;2022-10-31T06:18:57;6.40;99.90
18225;DHT22;9237;48.590;8.854;2022-10-31T06:21:24;6.40;99.90
18225;DHT22;9237;48.590;8.854;2022-10-31T06:23:51;6.50;99.90
18225;DHT22;9237;48.590;8.854;2022-10-31T06:26:18;6.50;99.90
18225;DHT22;9237;48.590;8.854;2022-10-31T06:28:45;6.60;99.90
18225;DHT22;9237;48.590;8.854;2022-10-31T06:31:12;6.70;99.90
18225;DHT22;9237;48.590;8.854;2022-10-31T06:33:40;6.80;99.90
18225;DHT22;9237;48.590;8.854;2022-10-31T06:36:09;6.90;99.90
18225;DHT22;9237;48.590;8.854;2022-10-31T06:38:36;7.00;99.90
18225;DHT22;9237;48.590;8.854;2022-10-31T06:41:03;7.00;99.90
18225;DHT22;9237;48.590;8.854;2022-10-31T06:43:31;7.10;99.90
18225;DHT22;9237;48.590;8.854;2022-10-31T06:46:01;7.10;99.90
18225;DHT22;9237;48.590;8.854;2022-10-31T06:48:28;7.10;99.90
18225;DHT22;9237;48.590;8.854;2022-10-31T06:50:57;7.10;99.90
18225;DHT22;9237;48.590;8.854;2022-10-31T06:53:49;7.10;99.90
18225;DHT22;9237;48.590;8.854;2022-10-31T06:56:16;7.10;99.90
18225;DHT22;9237;48.590;8.854;2022-10-31T06:58:42;7.10;99.90
18225;DHT22;9237;48.590;8.854;2022-10-31T07:01:09;7.20;99.90
18225;DHT22;9237;48.590;8.854;2022-10-31T07:03:36;7.20;99.90
18225;DHT22;9237;48.590;8.854;2022-10-31T07:06:03;7.30;99.90
18225;DHT22;9237;48.590;8.854;2022-10-31T07:08:30;7.40;99.90
18225;DHT22;9237;48.590;8.854;2022-10-31T07:10:58;7.50;99.90
18225;DHT22;9237;48.590;8.854;2022-10-31T07:13:25;7.60;99.90
18225;DHT22;9237;48.590;8.854;2022-10-31T07:15:52;7.70;99.90
18225;DHT22;9237;48.590;8.854;2022-10-31T07:18:20;7.80;99.90
18225;DHT22;9237;48.590;8.854;2022-10-31T07:20:47;7.90;99.90
18225;DHT22;9237;48.590;8.854;2022-10-31T07:23:14;8.10;99.90
18225;DHT22;9237;48.590;8.854;2022-10-31T07:25:41;8.20;99.90
18225;DHT22;9237;48.590;8.854;2022-10-31T07:28:09;8.30;99.90
18225;DHT22;9237;48.590;8.854;2022-10-31T07:30:36;8.40;99.90
18225;DHT22;9237;48.590;8.854;2022-10-31T07:33:04;8.50;99.90
18225;DHT22;9237;48.590;8.854;2022-10-31T07:35:31;8.50;99.90
18225;DHT22;9237;48.590;8.854;2022-10-31T07:38:07;8.60;99.90
18225;DHT22;9237;48.590;8.854;2022-10-31T07:40:34;8.60;99.90
18225;DHT22;9237;48.590;8.854;2022-10-31T07:43:01;8.80;99.90
18225;DHT22;9237;48.590;8.854;2022-10-31T07:45:29;8.90;99.90
18225;DHT22;9237;48.590;8.854;2022-10-31T07:47:56;9.00;99.90
18225;DHT22;9237;48.590;8.854;2022-10-31T07:50:25;9.10;99.90
18225;DHT22;9237;48.590;8.854;2022-10-31T07:52:59;9.30;99.90
18225;DHT22;9237;48.590;8.854;2022-10-31T07:55:26;9.50;99.90
18225;DHT22;9237;48.590;8.854;2022-10-31T07:57:57;9.60;99.90
18225;DHT22;9237;48.590;8.854;2022-10-31T08:00:24;9.70;99.90
18225;DHT22;9237;48.590;8.854;2022-10-31T08:03:00;9.80;99.90
18225;DHT22;9237;48.590;8.854;2022-10-31T08:05:27;9.90;99.90
18225;DHT22;9237;48.590;8.854;2022-10-31T08:07:54;10.00;99.90
18225;DHT22;9237;48.590;8.854;2022-10-31T08:10:21;10.10;99.90
18225;DHT22;9237;48.590;8.854;2022-10-31T08:12:54;10.20;99.90
18225;DHT22;9237;48.590;8.854;2022-10-31T08:15:21;10.20;99.90
18225;DHT22;9237;48.590;8.854;2022-10-31T08:17:47;10.20;99.90
18225;DHT22;9237;48.590;8.854;2022-10-31T08:20:16;10.30;99.90
18225;DHT22;9237;48.590;8.854;2022-10-31T08:22:43;10.30;99.90
18225;DHT22;9237;48.590;8.854;2022-10-31T08:25:09;10.40;99.90
18225;DHT22;9237;48.590;8.854;2022-10-31T08:27:36;10.50;99.90
18225;DHT22;9237;48.590;8.854;2022-10-31T08:30:04;10.60;99.90
18225;DHT22;9237;48.590;8.854;2022-10-31T08:32:31;10.70;99.90
18225;DHT22;9237;48.590;8.854;2022-10-31T08:34:58;10.80;99.90
18225;DHT22;9237;48.590;8.854;2022-10-31T08:37:26;10.90;99.90
18225;DHT22;9237;48.590;8.854;2022-10-31T08:39:53;11.00;99.90
18225;DHT22;9237;48.590;8.854;2022-10-31T08:42:19;11.10;99.90
18225;DHT22;9237;48.590;8.854;2022-10-31T08:44:46;11.10;99.90
18225;DHT22;9237;48.590;8.854;2022-10-31T08:47:13;11.20;99.90
18225;DHT22;9237;48.590;8.854;2022-10-31T08:49:40;11.30;99.90
18225;DHT22;9237;48.590;8.854;2022-10-31T08:52:07;11.40;99.90
18225;DHT22;9237;48.590;8.854;2022-10-31T08:54:35;11.50;99.90
18225;DHT22;9237;48.590;8.854;2022-10-31T08:57:02;11.60;99.90
18225;DHT22;9237;48.590;8.854;2022-10-31T08:59:28;11.60;99.90
18225;DHT22;9237;48.590;8.854;2022-10-31T09:01:55;11.60;99.90
18225;DHT22;9237;48.590;8.854;2022-10-31T09:04:22;11.70;99.90
18225;DHT22;9237;48.590;8.854;2022-10-31T09:06:49;11.80;99.90
18225;DHT22;9237;48.590;8.854;2022-10-31T09:09:16;11.90;99.90
18225;DHT22;9237;48.590;8.854;2022-10-31T09:11:44;12.00;99.90
18225;DHT22;9237;48.590;8.854;2022-10-31T09:14:10;12.10;99.90
18225;DHT22;9237;48.590;8.854;2022-10-31T09:16:37;12.20;99.90
18225;DHT22;9237;48.590;8.854;2022-10-31T09:19:04;12.30;99.90
18225;DHT22;9237;48.590;8.854;2022-10-31T09:21:31;12.40;99.90
18225;DHT22;9237;48.590;8.854;2022-10-31T09:23:58;12.50;99.90
18225;DHT22;9237;48.590;8.854;2022-10-31T09:26:24;12.60;99.90
18225;DHT22;9237;48.590;8.854;2022-10-31T09:28:53;12.60;99.90
18225;DHT22;9237;48.590;8.854;2022-10-31T09:31:19;12.80;99.90
18225;DHT22;9237;48.590;8.854;2022-10-31T09:33:46;12.90;99.90
18225;DHT22;9237;48.590;8.854;2022-10-31T09:36:13;13.00;99.90
18225;DHT22;9237;48.590;8.854;2022-10-31T09:38:40;13.00;99.90
18225;DHT22;9237;48.590;8.854;2022-10-31T09:41:15;13.20;99.90
18225;DHT22;9237;48.590;8.854;2022-10-31T09:43:56;13.20;99.90
18225;DHT22;9237;48.590;8.854;2022-10-31T09:46:31;13.30;99.90
18225;DHT22;9237;48.590;8.854;2022-10-31T09:49:18;13.40;99.90
18225;DHT22;9237;48.590;8.854;2022-10-31T09:51:51;13.60;99.90
18225;DHT22;9237;48.590;8.854;2022-10-31T09:54:25;13.70;99.90
18225;DHT22;9237;48.590;8.854;2022-10-31T09:56:55;13.80;99.90
18225;DHT22;9237;48.590;8.854;2022-10-31T09:59:26;13.80;99.90
18225;DHT22;9237;48.590;8.854;2022-10-31T10:01:59;13.90;99.90
18225;DHT22;9237;48.590;8.854;2022-10-31T10:04:33;14.10;99.90
18225;DHT22;9237;48.590;8.854;2022-10-31T10:07:05;14.30;99.90
18225;DHT22;9237;48.590;8.854;2022-10-31T10:09:33;14.40;99.90
18225;DHT22;9237;48.590;8.854;2022-10-31T10:12:07;14.20;99.90
18225;DHT22;9237;48.590;8.854;2022-10-31T10:14:45;14.30;99.90
18225;DHT22;9237;48.590;8.854;2022-10-31T10:17:23;14.50;99.90
18225;DHT22;9237;48.590;8.854;2022-10-31T10:20:18;14.40;99.90
18225;DHT22;9237;48.590;8.854;2022-10-31T10:22:54;14.40;99.90
18225;DHT22;9237;48.590;8.854;2022-10-31T10:25:27;14.50;99.90
18225;DHT22;9237;48.590;8.854;2022-10-31T10:28:10;14.60;99.90
18225;DHT22;9237;48.590;8.854;2022-10-31T10:30:42;14.80;99.90
18225;DHT22;9237;48.590;8.854;2022-10-31T10:33:13;15.00;99.90
18225;DHT22;9237;48.590;8.854;2022-10-31T10:35:43;15.20;99.90
18225;DHT22;9237;48.590;8.854;2022-10-31T10:38:19;15.30;99.90
18225;DHT22;9237;48.590;8.854;2022-10-31T10:40:47;15.20;99.90
18225;DHT22;9237;48.590;8.854;2022-10-31T10:43:23;15.40;99.90
18225;DHT22;9237;48.590;8.854;2022-10-31T10:45:59;15.40;99.90
18225;DHT22;9237;48.590;8.854;2022-10-31T10:48:50;15.60;99.90
18225;DHT22;9237;48.590;8.854;2022-10-31T10:51:23;15.80;99.90
18225;DHT22;9237;48.590;8.854;2022-10-31T10:54:02;16.00;99.90
18225;DHT22;9237;48.590;8.854;2022-10-31T10:56:57;15.90;99.90
18225;DHT22;9237;48.590;8.854;2022-10-31T10:59:26;16.20;99.90
18225;DHT22;9237;48.590;8.854;2022-10-31T11:01:54;16.30;99.90
18225;DHT22;9237;48.590;8.854;2022-10-31T11:04:29;16.50;99.90
18225;DHT22;9237;48.590;8.854;2022-10-31T11:06:58;16.60;99.90
18225;DHT22;9237;48.590;8.854;2022-10-31T11:09:24;16.80;99.90
18225;DHT22;9237;48.590;8.854;2022-10-31T11:11:51;16.80;99.90
18225;DHT22;9237;48.590;8.854;2022-10-31T11:14:18;17.00;99.90
18225;DHT22;9237;48.590;8.854;2022-10-31T11:16:48;17.10;99.90
18225;DHT22;9237;48.590;8.854;2022-10-31T11:19:18;16.80;99.90
18225;DHT22;9237;48.590;8.854;2022-10-31T11:21:48;16.90;99.90
18225;DHT22;9237;48.590;8.854;2022-10-31T11:24:24;17.00;99.90
18225;DHT22;9237;48.590;8.854;2022-10-31T11:27:07;17.10;99.90
18225;DHT22;9237;48.590;8.854;2022-10-31T11:29:36;17.00;99.90
18225;DHT22;9237;48.590;8.854;2022-10-31T11:32:03;17.00;99.90
18225;DHT22;9237;48.590;8.854;2022-10-31T11:34:32;17.00;99.90
18225;DHT22;9237;48.590;8.854;2022-10-31T11:37:04;17.00;99.90
18225;DHT22;9237;48.590;8.854;2022-10-31T11:39:40;17.00;99.90
18225;DHT22;9237;48.590;8.854;2022-10-31T11:42:08;17.10;99.90
18225;DHT22;9237;48.590;8.854;2022-10-31T11:44:35;17.20;99.90
18225;DHT22;9237;48.590;8.854;2022-10-31T11:47:04;17.20;99.90
18225;DHT22;9237;48.590;8.854;2022-10-31T11:49:35;17.30;99.90
18225;DHT22;9237;48.590;8.854;2022-10-31T11:52:06;17.50;99.90
18225;DHT22;9237;48.590;8.854;2022-10-31T11:54:44;17.50;99.90
18225;DHT22;9237;48.590;8.854;2022-10-31T11:57:22;17.40;99.90
18225;DHT22;9237;48.590;8.854;2022-10-31T11:59:52;17.20;99.90
18225;DHT22;9237;48.590;8.854;2022-10-31T12:02:20;17.30;99.90
18225;DHT22;9237;48.590;8.854;2022-10-31T12:04:50;17.40;99.90
18225;DHT22;9237;48.590;8.854;2022-10-31T12:07:19;17.40;99.90
18225;DHT22;9237;48.590;8.854;2022-10-31T12:09:47;17.40;99.90
18225;DHT22;9237;48.590;8.854;2022-10-31T12:15:30;17.50;99.90
18225;DHT22;9237;48.590;8.854;2022-10-31T12:18:25;17.50;99.90
18225;DHT22;9237;48.590;8.854;2022-10-31T12:21:07;17.20;99.90
18225;DHT22;9237;48.590;8.854;2022-10-31T12:23:44;17.10;99.90
18225;DHT22;9237;48.590;8.854;2022-10-31T12:26:20;17.10;99.90
18225;DHT22;9237;48.590;8.854;2022-10-31T12:29:05;17.10;99.90
18225;DHT22;9237;48.590;8.854;2022-10-31T12:31:46;17.10;99.90
18225;DHT22;9237;48.590;8.854;2022-10-31T12:34:49;17.10;99.90
18225;DHT22;9237;48.590;8.854;2022-10-31T12:37:34;17.00;99.90
18225;DHT22;9237;48.590;8.854;2022-10-31T12:40:20;16.90;99.90
18225;DHT22;9237;48.590;8.854;2022-10-31T12:43:01;17.00;99.90
18225;DHT22;9237;48.590;8.854;2022-10-31T12:45:43;16.90;99.90
18225;DHT22;9237;48.590;8.854;2022-10-31T12:48:45;17.00;99.90
18225;DHT22;9237;48.590;8.854;2022-10-31T12:51:19;17.00;99.90
18225;DHT22;9237;48.590;8.854;2022-10-31T12:54:03;17.00;99.90
18225;DHT22;9237;48.590;8.854;2022-10-31T12:56:42;17.00;99.90
18225;DHT22;9237;48.590;8.854;2022-10-31T12:59:16;17.10;99.90
18225;DHT22;9237;48.590;8.854;2022-10-31T13:01:49;17.10;99.90
18225;DHT22;9237;48.590;8.854;2022-10-31T13:04:23;17.20;99.90
18225;DHT22;9237;48.590;8.854;2022-10-31T13:06:57;17.40;99.90
18225;DHT22;9237;48.590;8.854;2022-10-31T13:09:30;17.50;99.90
18225;DHT22;9237;48.590;8.854;2022-10-31T13:12:03;17.70;99.90
18225;DHT22;9237;48.590;8.854;2022-10-31T13:14:35;17.90;99.90
18225;DHT22;9237;48.590;8.854;2022-10-31T13:17:04;18.30;99.90
18225;DHT22;9237;48.590;8.854;2022-10-31T13:19:36;18.40;99.90
18225;DHT22;9237;48.590;8.854;2022-10-31T13:22:07;18.50;99.90
18225;DHT22;9237;48.590;8.854;2022-10-31T13:24:38;18.50;99.90
18225;DHT22;9237;48.590;8.854;2022-10-31T13:27:12;18.30;99.90
18225;DHT22;9237;48.590;8.854;2022-10-31T13:29:46;18.20;99.90
18225;DHT22;9237;48.590;8.854;2022-10-31T13:32:16;18.20;99.90
18225;DHT22;9237;48.590;8.854;2022-10-31T13:34:46;18.30;99.90
18225;DHT22;9237;48.590;8.854;2022-10-31T13:37:19;18.40;99.90
18225;DHT22;9237;48.590;8.854;2022-10-31T13:40:02;18.80;99.90
18225;DHT22;9237;48.590;8.854;2022-10-31T13:42:43;19.10;99.90
18225;DHT22;9237;48.590;8.854;2022-10-31T13:45:15;19.40;99.90
18225;DHT22;9237;48.590;8.854;2022-10-31T13:47:43;19.60;99.90
18225;DHT22;9237;48.590;8.854;2022-10-31T13:50:21;19.60;99.90
18225;DHT22;9237;48.590;8.854;2022-10-31T13:52:48;19.60;99.90
18225;DHT22;9237;48.590;8.854;2022-10-31T13:55:38;19.50;99.90
18225;DHT22;9237;48.590;8.854;2022-10-31T13:58:17;19.60;99.90
18225;DHT22;9237;48.590;8.854;2022-10-31T14:00:58;20.30;99.90
18225;DHT22;9237;48.590;8.854;2022-10-31T14:03:25;22.50;99.90
18225;DHT22;9237;48.590;8.854;2022-10-31T14:05:55;23.90;99.90
18225;DHT22;9237;48.590;8.854;2022-10-31T14:08:23;24.40;99.90
18225;DHT22;9237;48.590;8.854;2022-10-31T14:10:52;25.10;99.10
18225;DHT22;9237;48.590;8.854;2022-10-31T14:13:22;25.80;96.50
18225;DHT22;9237;48.590;8.854;2022-10-31T14:15:57;26.40;94.20
18225;DHT22;9237;48.590;8.854;2022-10-31T14:18:30;25.90;93.40
18225;DHT22;9237;48.590;8.854;2022-10-31T14:20:58;25.40;92.90
18225;DHT22;9237;48.590;8.854;2022-10-31T14:23:38;24.50;93.30
18225;DHT22;9237;48.590;8.854;2022-10-31T14:26:30;24.50;94.50
18225;DHT22;9237;48.590;8.854;2022-10-31T14:28:58;24.60;93.70
18225;DHT22;9237;48.590;8.854;2022-10-31T14:31:39;24.70;92.90
18225;DHT22;9237;48.590;8.854;2022-10-31T14:34:26;24.50;92.90
18225;DHT22;9237;48.590;8.854;2022-10-31T14:37:18;24.30;93.10
18225;DHT22;9237;48.590;8.854;2022-10-31T14:39:56;24.50;91.80
18225;DHT22;9237;48.590;8.854;2022-10-31T14:42:36;23.70;92.60
18225;DHT22;9237;48.590;8.854;2022-10-31T14:45:20;22.20;94.70
18225;DHT22;9237;48.590;8.854;2022-10-31T14:48:00;20.90;96.60
18225;DHT22;9237;48.590;8.854;2022-10-31T14:50:44;20.00;99.20
18225;DHT22;9237;48.590;8.854;2022-10-31T14:53:16;19.50;99.90
18225;DHT22;9237;48.590;8.854;2022-10-31T14:55:48;19.00;99.90
18225;DHT22;9237;48.590;8.854;2022-10-31T14:58:19;18.70;99.90
18225;DHT22;9237;48.590;8.854;2022-10-31T15:00:47;18.60;99.90
18225;DHT22;9237;48.590;8.854;2022-10-31T15:03:17;18.50;99.90
18225;DHT22;9237;48.590;8.854;2022-10-31T15:05:48;18.30;99.90
18225;DHT22;9237;48.590;8.854;2022-10-31T15:08:29;18.10;99.90
18225;DHT22;9237;48.590;8.854;2022-10-31T15:10:57;17.90;99.90
18225;DHT22;9237;48.590;8.854;2022-10-31T15:13:24;17.80;99.90
18225;DHT22;9237;48.590;8.854;2022-10-31T15:15:53;17.60;99.90
18225;DHT22;9237;48.590;8.854;2022-10-31T15:18:24;17.60;99.90
18225;DHT22;9237;48.590;8.854;2022-10-31T15:20:53;17.50;99.90
18225;DHT22;9237;48.590;8.854;2022-10-31T15:23:23;17.50;99.90
18225;DHT22;9237;48.590;8.854;2022-10-31T15:25:50;17.30;99.90
18225;DHT22;9237;48.590;8.854;2022-10-31T15:28:25;17.20;99.90
18225;DHT22;9237;48.590;8.854;2022-10-31T15:30:53;17.00;99.90
18225;DHT22;9237;48.590;8.854;2022-10-31T15:33:23;16.90;99.90
18225;DHT22;9237;48.590;8.854;2022-10-31T15:35:55;16.80;99.90
18225;DHT22;9237;48.590;8.854;2022-10-31T15:38:23;16.70;99.90
18225;DHT22;9237;48.590;8.854;2022-10-31T15:40:54;16.60;99.90
18225;DHT22;9237;48.590;8.854;2022-10-31T15:43:21;16.50;99.90
18225;DHT22;9237;48.590;8.854;2022-10-31T15:45:49;16.50;99.90
18225;DHT22;9237;48.590;8.854;2022-10-31T15:48:18;16.40;99.90
18225;DHT22;9237;48.590;8.854;2022-10-31T15:50:49;16.20;99.90
18225;DHT22;9237;48.590;8.854;2022-10-31T15:53:18;16.10;99.90
18225;DHT22;9237;48.590;8.854;2022-10-31T15:55:48;16.00;99.90
18225;DHT22;9237;48.590;8.854;2022-10-31T15:58:17;15.80;99.90
18225;DHT22;9237;48.590;8.854;2022-10-31T16:00:44;15.60;99.90
18225;DHT22;9237;48.590;8.854;2022-10-31T16:03:23;15.50;99.90
18225;DHT22;9237;48.590;8.854;2022-10-31T16:05:53;15.20;99.90
18225;DHT22;9237;48.590;8.854;2022-10-31T16:08:24;15.00;99.90
18225;DHT22;9237;48.590;8.854;2022-10-31T16:10:52;14.80;99.90
18225;DHT22;9237;48.590;8.854;2022-10-31T16:13:23;14.60;99.90
18225;DHT22;9237;48.590;8.854;2022-10-31T16:15:54;14.50;99.90
18225;DHT22;9237;48.590;8.854;2022-10-31T16:18:21;14.40;99.90
18225;DHT22;9237;48.590;8.854;2022-10-31T16:20:51;14.30;99.90